Time;durP1;ratioP1;P1;durP2;ratioP2;P2;SDS_P1;SDS_P2;PMS_P1;PMS_P2;Temp;Humidity;BMP_temperature;BMP_pressure;BME280_temperature;BME280_humidity;BME280_pressure;Samples;Min_cycle;Max_cycle;Signal;HPM_P1;HPM_P2
2021/06/04 00:01:00;;;;;;;8.80;5.78;;;20.40;99.40;;;;;;5040600;28;20045;-68
2021/06/04 00:03:26;;;;;;;10.23;6.57;;;20.40;99.40;;;;;;5049539;28;20393;-69
2021/06/04 00:05:55;;;;;;;9.70;6.88;;;20.30;99.40;;;;;;5025669;28;20111;-69
2021/06/04 00:08:24;;;;;;;10.68;6.10;;;20.30;99.40;;;;;;5038548;28;20133;-68
2021/06/04 00:10:58;;;;;;;8.27;6.28;;;20.20;99.70;;;;;;5051516;28;20080;-68
2021/06/04 00:13:31;;;;;;;7.93;6.05;;;20.20;99.50;;;;;;5046926;28;20069;-68
2021/06/04 00:16:12;;;;;;;8.73;6.25;;;20.20;99.50;;;;;;5033872;28;20068;-68
2021/06/04 00:18:42;;;;;;;8.60;6.25;;;20.20;99.60;;;;;;5041867;28;20117;-68
2021/06/04 00:21:22;;;;;;;8.95;6.40;;;20.10;99.60;;;;;;5041025;28;20107;-68
2021/06/04 00:23:50;;;;;;;9.38;6.72;;;20.10;99.70;;;;;;5047212;28;20479;-69
2021/06/04 00:26:17;;;;;;;8.32;6.35;;;20.10;99.70;;;;;;5043863;28;20130;-68
2021/06/04 00:28:44;;;;;;;9.68;6.90;;;20.00;99.70;;;;;;5053139;28;20160;-69
2021/06/04 00:31:11;;;;;;;8.93;6.63;;;20.00;99.70;;;;;;5034300;28;20049;-69
2021/06/04 00:33:38;;;;;;;9.43;6.80;;;20.00;99.70;;;;;;5053023;28;20135;-69
2021/06/04 00:36:06;;;;;;;8.63;6.35;;;20.00;99.70;;;;;;5047165;28;20050;-68
2021/06/04 00:38:33;;;;;;;;;;;20.00;99.70;;;;;;5065527;28;20079;-68
2021/06/04 00:41:05;;;;;;;9.13;5.70;;;19.90;99.90;;;;;;5027440;28;20284;-69
2021/06/04 00:43:32;;;;;;;7.00;5.65;;;19.90;99.90;;;;;;5050982;28;20150;-69
2021/06/04 00:46:01;;;;;;;10.13;6.47;;;19.80;99.90;;;;;;5052638;28;20055;-68
2021/06/04 00:48:28;;;;;;;7.47;5.70;;;19.80;99.90;;;;;;5047424;28;20044;-68
2021/06/04 00:51:04;;;;;;;9.45;6.78;;;19.70;99.90;;;;;;5049416;28;20075;-69
2021/06/04 00:53:31;;;;;;;10.85;7.22;;;19.70;99.70;;;;;;5040822;28;20049;-69
2021/06/04 00:55:59;;;;;;;9.57;7.70;;;19.60;99.70;;;;;;5058453;28;20091;-68
2021/06/04 00:58:31;;;;;;;10.57;8.23;;;19.50;99.80;;;;;;5050951;28;20354;-68
2021/06/04 01:00:59;;;;;;;11.50;7.68;;;19.40;99.90;;;;;;5042298;28;20044;-68
2021/06/04 01:03:29;;;;;;;11.02;7.25;;;19.40;99.90;;;;;;5051239;28;20041;-68
2021/06/04 01:06:19;;;;;;;9.57;7.80;;;19.30;99.90;;;;;;5051221;28;20055;-68
2021/06/04 01:09:12;;;;;;;10.07;7.05;;;19.30;99.90;;;;;;5057639;28;20056;-69
2021/06/04 01:12:11;;;;;;;9.82;7.22;;;19.30;99.90;;;;;;5008746;28;20080;-68
2021/06/04 01:15:01;;;;;;;10.82;6.63;;;19.30;99.90;;;;;;5037771;28;20548;-68
2021/06/04 01:18:09;;;;;;;11.63;7.47;;;19.20;99.90;;;;;;5048734;28;20041;-68
2021/06/04 01:20:54;;;;;;;9.20;7.20;;;19.20;99.90;;;;;;5058364;28;20053;-68
2021/06/04 01:23:49;;;;;;;13.10;7.80;;;19.10;99.90;;;;;;5057176;28;20076;-68
2021/06/04 01:26:27;;;;;;;10.93;7.93;;;19.00;99.90;;;;;;5053795;28;20127;-68
2021/06/04 01:29:23;;;;;;;9.18;7.35;;;19.00;99.90;;;;;;5041875;28;20052;-68
2021/06/04 01:31:55;;;;;;;10.32;7.55;;;18.90;99.90;;;;;;5050092;28;20044;-68
2021/06/04 01:34:31;;;;;;;10.43;7.60;;;18.90;99.90;;;;;;5047871;28;20073;-68
2021/06/04 01:37:07;;;;;;;9.90;7.72;;;18.90;99.90;;;;;;5062930;28;20495;-68
2021/06/04 01:39:48;;;;;;;12.27;7.40;;;18.90;99.90;;;;;;5051915;28;20500;-68
2021/06/04 01:42:18;;;;;;;11.30;7.88;;;18.90;99.90;;;;;;5050183;28;20103;-68
2021/06/04 01:44:57;;;;;;;11.65;8.40;;;18.80;99.90;;;;;;5043472;28;20076;-69
2021/06/04 01:47:38;;;;;;;12.70;8.95;;;18.80;99.90;;;;;;5043072;28;20045;-68
2021/06/04 01:50:15;;;;;;;10.43;7.88;;;18.80;99.90;;;;;;5036185;28;20081;-68
2021/06/04 01:52:44;;;;;;;11.18;7.75;;;18.80;99.90;;;;;;5054070;28;20448;-68
2021/06/04 01:55:21;;;;;;;11.23;7.78;;;18.70;99.90;;;;;;5061758;28;20049;-68
2021/06/04 01:58:04;;;;;;;12.35;9.10;;;18.70;99.90;;;;;;5057646;28;20052;-68
2021/06/04 02:00:41;;;;;;;12.15;9.07;;;18.70;99.90;;;;;;5047131;28;20072;-68
2021/06/04 02:03:11;;;;;;;12.15;9.40;;;18.60;99.90;;;;;;5030573;28;20044;-68
2021/06/04 02:05:40;;;;;;;11.85;8.73;;;18.60;99.90;;;;;;5055048;28;20052;-68
2021/06/04 02:08:10;;;;;;;12.80;8.90;;;18.60;99.90;;;;;;5045574;28;20973;-68
2021/06/04 02:10:42;;;;;;;10.88;8.30;;;18.50;99.90;;;;;;5049076;28;20048;-68
2021/06/04 02:13:11;;;;;;;11.40;8.25;;;18.50;99.90;;;;;;5059168;28;20135;-68
2021/06/04 02:15:44;;;;;;;12.57;9.25;;;18.40;99.90;;;;;;5054618;28;20104;-68
2021/06/04 02:18:39;;;;;;;13.98;9.85;;;18.40;99.90;;;;;;5051035;28;20050;-68
2021/06/04 02:21:16;;;;;;;12.15;9.30;;;18.40;99.90;;;;;;5052739;28;20036;-68
2021/06/04 02:24:10;;;;;;;11.10;8.23;;;18.40;99.90;;;;;;5048918;28;20037;-68
2021/06/04 02:26:56;;;;;;;12.98;9.35;;;18.30;99.90;;;;;;5052911;28;20511;-68
2021/06/04 02:29:34;;;;;;;12.77;9.00;;;18.30;99.90;;;;;;5064804;28;20084;-68
2021/06/04 02:32:07;;;;;;;;;;;18.20;99.90;;;;;;5053547;28;20094;-68
2021/06/04 02:34:43;;;;;;;12.70;8.65;;;18.20;99.90;;;;;;5072910;28;19960;-68
2021/06/04 02:37:16;;;;;;;15.18;9.07;;;18.20;99.90;;;;;;5046408;28;20045;-68
2021/06/04 02:39:48;;;;;;;11.60;8.10;;;18.20;99.90;;;;;;5061415;28;20116;-68
2021/06/04 02:42:26;;;;;;;10.68;7.90;;;18.10;99.90;;;;;;5051218;28;20138;-68
2021/06/04 02:44:59;;;;;;;10.07;7.28;;;18.00;99.90;;;;;;5057558;28;20088;-68
2021/06/04 02:47:31;;;;;;;10.10;7.35;;;18.00;99.90;;;;;;5059789;28;20093;-68
2021/06/04 02:50:04;;;;;;;11.95;7.95;;;18.00;99.90;;;;;;5052125;28;20057;-68
2021/06/04 02:52:41;;;;;;;10.68;7.45;;;17.90;99.90;;;;;;5042379;28;20045;-68
2021/06/04 02:55:18;;;;;;;11.00;7.43;;;17.80;99.90;;;;;;5047571;28;20080;-68
2021/06/04 02:57:45;;;;;;;13.05;8.40;;;17.80;99.90;;;;;;5048295;28;20049;-68
2021/06/04 03:00:22;;;;;;;14.05;8.73;;;17.80;99.90;;;;;;5052700;28;20068;-68
2021/06/04 03:02:49;;;;;;;13.15;9.20;;;17.80;99.90;;;;;;5044360;28;20094;-68
2021/06/04 03:05:23;;;;;;;13.52;9.77;;;17.70;99.90;;;;;;5037900;28;20348;-68
2021/06/04 03:07:49;;;;;;;13.88;8.93;;;17.80;99.90;;;;;;5054654;28;20151;-68
2021/06/04 03:10:42;;;;;;;12.27;8.80;;;17.70;99.90;;;;;;5057823;28;20091;-68
2021/06/04 03:13:13;;;;;;;11.02;7.75;;;17.70;99.90;;;;;;5051645;28;20132;-68
2021/06/04 03:15:48;;;;;;;12.73;8.98;;;17.60;99.90;;;;;;5056047;28;20049;-68
2021/06/04 03:18:23;;;;;;;12.77;8.93;;;17.60;99.90;;;;;;5051499;28;20068;-68
2021/06/04 03:20:51;;;;;;;13.18;9.40;;;17.60;99.90;;;;;;5026451;28;20711;-68
2021/06/04 03:23:22;;;;;;;14.93;9.95;;;17.60;99.90;;;;;;5045559;28;20071;-68
2021/06/04 03:25:51;;;;;;;15.05;9.52;;;17.60;99.90;;;;;;5047068;28;20517;-68
2021/06/04 03:28:22;;;;;;;16.98;10.73;;;17.60;99.90;;;;;;5050685;28;20048;-68
2021/06/04 03:30:49;;;;;;;15.63;10.40;;;17.50;99.90;;;;;;5041919;28;20086;-68
2021/06/04 03:33:20;;;;;;;14.27;9.82;;;17.50;99.90;;;;;;5045689;28;20052;-68
2021/06/04 03:35:47;;;;;;;13.73;9.63;;;17.40;99.90;;;;;;5039156;28;20201;-68
2021/06/04 03:38:16;;;;;;;12.65;8.55;;;17.40;99.90;;;;;;5057889;28;20087;-68
2021/06/04 03:41:09;;;;;;;12.82;8.50;;;17.40;99.90;;;;;;5043728;28;20076;-68
2021/06/04 03:43:36;;;;;;;15.73;10.02;;;17.40;99.90;;;;;;5057672;28;20049;-68
2021/06/04 03:46:03;;;;;;;14.53;8.97;;;17.30;99.90;;;;;;5033603;28;20462;-68
2021/06/04 03:48:33;;;;;;;14.18;9.77;;;17.30;99.90;;;;;;5049652;28;20304;-68
2021/06/04 03:51:11;;;;;;;14.32;9.00;;;17.30;99.90;;;;;;5049070;28;20456;-68
2021/06/04 03:53:38;;;;;;;18.80;9.90;;;17.30;99.90;;;;;;5057376;28;20049;-68
2021/06/04 03:56:07;;;;;;;16.38;9.70;;;17.30;99.90;;;;;;5061529;28;20044;-68
2021/06/04 03:58:35;;;;;;;17.02;10.75;;;17.30;99.90;;;;;;5061536;28;20080;-68
2021/06/04 04:01:07;;;;;;;15.13;9.52;;;17.20;99.90;;;;;;5056362;28;20087;-68
2021/06/04 04:03:34;;;;;;;16.65;11.00;;;17.20;99.90;;;;;;5052477;28;20060;-68
2021/06/04 04:06:01;;;;;;;18.50;10.40;;;17.20;99.90;;;;;;5053436;28;20053;-68
2021/06/04 04:08:29;;;;;;;15.95;9.65;;;17.20;99.90;;;;;;5036057;28;20449;-68
2021/06/04 04:10:57;;;;;;;14.52;9.70;;;17.20;99.90;;;;;;5037331;28;20133;-68
2021/06/04 04:13:24;;;;;;;;;;;17.20;99.90;;;;;;5049890;28;20085;-68
2021/06/04 04:15:52;;;;;;;16.43;9.83;;;17.30;99.90;;;;;;5048675;28;19971;-68
2021/06/04 04:18:19;;;;;;;17.13;10.00;;;17.30;99.90;;;;;;5050703;28;20489;-68
2021/06/04 04:20:50;;;;;;;16.70;10.63;;;17.30;99.90;;;;;;5045641;28;20131;-68
2021/06/04 04:23:25;;;;;;;15.82;10.57;;;17.30;99.90;;;;;;5058235;28;20087;-68
2021/06/04 04:25:51;;;;;;;16.63;10.88;;;17.30;99.90;;;;;;5049092;28;20077;-68
2021/06/04 04:28:25;;;;;;;17.05;10.50;;;17.40;99.90;;;;;;5053070;28;20088;-68
2021/06/04 04:30:52;;;;;;;15.35;9.85;;;17.40;99.90;;;;;;5056730;28;20624;-68
2021/06/04 04:33:19;;;;;;;16.17;9.98;;;17.40;99.90;;;;;;5057950;28;20060;-69
2021/06/04 04:35:46;;;;;;;15.43;10.63;;;17.50;99.90;;;;;;5050986;28;20361;-68
2021/06/04 04:38:18;;;;;;;16.67;10.43;;;17.50;99.90;;;;;;5046743;28;20049;-68
2021/06/04 04:40:44;;;;;;;17.80;10.55;;;17.60;99.90;;;;;;5069709;28;20076;-68
2021/06/04 04:43:11;;;;;;;15.15;9.93;;;17.60;99.90;;;;;;5062684;28;20064;-68
2021/06/04 04:45:38;;;;;;;16.15;10.45;;;17.70;99.90;;;;;;5043220;28;20045;-68
2021/06/04 04:48:07;;;;;;;14.98;11.15;;;17.70;99.90;;;;;;5039075;28;20071;-68
2021/06/04 04:50:35;;;;;;;15.93;9.75;;;17.80;99.90;;;;;;5054192;28;20127;-69
2021/06/04 04:53:04;;;;;;;15.77;11.05;;;17.90;99.90;;;;;;5059775;28;20462;-69
2021/06/04 04:55:35;;;;;;;15.07;10.45;;;17.90;99.90;;;;;;5058477;28;20090;-68
2021/06/04 04:58:03;;;;;;;13.77;9.55;;;18.00;99.90;;;;;;5047626;28;20102;-68
2021/06/04 05:00:31;;;;;;;18.65;11.45;;;18.00;99.90;;;;;;5053757;28;20122;-68
2021/06/04 05:02:59;;;;;;;15.93;11.50;;;18.10;99.90;;;;;;5055525;28;20471;-68
2021/06/04 05:05:27;;;;;;;16.38;10.90;;;18.20;99.90;;;;;;5054281;28;20496;-68
2021/06/04 05:07:54;;;;;;;17.92;11.98;;;18.30;99.90;;;;;;5054526;28;20048;-68
2021/06/04 05:10:21;;;;;;;15.43;11.27;;;18.30;99.90;;;;;;5056833;28;20074;-68
2021/06/04 05:12:48;;;;;;;15.55;11.40;;;18.40;99.90;;;;;;5058288;28;20124;-68
2021/06/04 05:15:20;;;;;;;19.02;11.90;;;18.50;99.90;;;;;;5054422;28;20564;-69
2021/06/04 05:17:48;;;;;;;22.73;15.30;;;18.50;99.90;;;;;;5045994;28;20049;-68
2021/06/04 05:20:15;;;;;;;22.10;13.48;;;18.40;99.90;;;;;;5054778;28;20076;-68
2021/06/04 05:22:43;;;;;;;19.25;13.20;;;18.40;99.90;;;;;;5050024;28;20103;-68
2021/06/04 05:25:15;;;;;;;19.83;13.65;;;18.50;99.90;;;;;;5043050;28;20049;-68
2021/06/04 05:27:44;;;;;;;19.80;12.77;;;18.60;99.90;;;;;;5051671;28;20492;-68
2021/06/04 05:30:22;;;;;;;19.48;13.95;;;18.70;99.90;;;;;;5058210;28;20071;-69
2021/06/04 05:32:49;;;;;;;18.73;13.23;;;18.80;99.90;;;;;;5051096;28;20079;-68
2021/06/04 05:35:16;;;;;;;21.13;13.98;;;18.90;99.90;;;;;;5054622;28;20095;-68
2021/06/04 05:37:44;;;;;;;18.02;13.57;;;18.90;99.90;;;;;;5065353;28;20136;-68
2021/06/04 05:40:18;;;;;;;21.30;16.30;;;18.90;99.90;;;;;;5027997;28;20072;-68
2021/06/04 05:42:45;;;;;;;23.70;15.27;;;19.00;99.90;;;;;;5057308;28;20068;-68
2021/06/04 05:45:15;;;;;;;24.75;15.98;;;19.10;99.90;;;;;;5053542;28;20041;-68
2021/06/04 05:47:42;;;;;;;21.35;15.32;;;19.20;99.90;;;;;;5051284;28;20045;-68
2021/06/04 05:50:14;;;;;;;22.17;15.98;;;19.20;99.90;;;;;;5043268;28;20107;-68
2021/06/04 05:52:42;;;;;;;19.75;14.52;;;19.20;99.90;;;;;;5056999;28;20053;-68
2021/06/04 05:55:14;;;;;;;23.83;15.48;;;19.20;99.90;;;;;;5067237;28;20080;-68
2021/06/04 05:57:41;;;;;;;23.48;15.48;;;19.20;99.90;;;;;;5054633;28;20446;-68
2021/06/04 06:00:13;;;;;;;24.25;16.55;;;19.20;99.90;;;;;;5056019;28;20088;-68
2021/06/04 06:02:41;;;;;;;21.55;15.50;;;19.20;99.90;;;;;;5043040;28;20508;-68
2021/06/04 06:05:08;;;;;;;23.63;16.90;;;19.20;99.90;;;;;;5048122;28;20090;-68
2021/06/04 06:07:35;;;;;;;26.73;17.58;;;19.30;99.90;;;;;;5050417;28;20056;-68
2021/06/04 06:10:04;;;;;;;31.30;18.67;;;19.40;99.90;;;;;;5039519;28;20129;-69
2021/06/04 06:12:31;;;;;;;29.35;19.63;;;19.50;99.90;;;;;;5045903;28;20503;-68
2021/06/04 06:14:58;;;;;;;25.95;17.65;;;19.60;99.90;;;;;;5036882;28;20065;-68
2021/06/04 06:17:25;;;;;;;28.00;18.08;;;19.70;99.90;;;;;;5019734;28;20052;-68
2021/06/04 06:19:52;;;;;;;28.13;19.40;;;19.80;99.90;;;;;;5052826;28;20426;-68
2021/06/04 06:22:19;;;;;;;25.90;18.65;;;19.80;99.90;;;;;;5035575;28;20084;-68
2021/06/04 06:24:49;;;;;;;26.30;18.77;;;19.90;99.90;;;;;;5043454;28;20597;-68
2021/06/04 06:27:16;;;;;;;28.15;19.58;;;20.00;99.90;;;;;;5061102;28;20133;-68
2021/06/04 06:29:43;;;;;;;31.88;20.65;;;20.10;99.90;;;;;;5062798;28;20057;-69
2021/06/04 06:32:12;;;;;;;32.00;19.67;;;20.10;99.90;;;;;;5064644;28;20111;-69
2021/06/04 06:34:39;;;;;;;29.30;19.25;;;20.20;99.90;;;;;;5046965;28;20052;-70
2021/06/04 06:37:08;;;;;;;28.00;18.65;;;20.30;99.90;;;;;;5053817;28;20045;-69
2021/06/04 06:39:34;;;;;;;27.05;19.92;;;20.30;99.90;;;;;;5045382;28;20049;-69
2021/06/04 06:42:05;;;;;;;27.20;20.08;;;20.40;99.90;;;;;;5035471;28;20061;-69
2021/06/04 06:44:32;;;;;;;26.20;18.67;;;20.40;99.90;;;;;;5032731;28;20053;-70
2021/06/04 06:47:00;;;;;;;25.27;18.73;;;20.50;99.90;;;;;;5032571;28;20103;-69
2021/06/04 06:49:27;;;;;;;27.67;17.58;;;20.50;99.90;;;;;;5020767;28;20377;-68
2021/06/04 06:51:54;;;;;;;26.95;18.15;;;20.60;99.90;;;;;;5035970;28;20073;-69
2021/06/04 06:54:31;;;;;;;23.92;17.10;;;20.60;99.90;;;;;;5035538;28;20053;-68
2021/06/04 06:56:59;;;;;;;26.63;17.73;;;20.70;99.90;;;;;;5036243;28;20057;-69
2021/06/04 06:59:29;;;;;;;22.80;16.88;;;20.70;99.90;;;;;;5036408;28;20472;-68
2021/06/04 07:01:58;;;;;;;25.05;16.33;;;20.80;99.90;;;;;;5024777;28;20052;-69
2021/06/04 07:04:25;;;;;;;24.42;18.65;;;20.80;99.90;;;;;;5052234;28;20628;-68
2021/06/04 07:06:53;;;;;;;27.77;18.55;;;20.90;99.90;;;;;;5022228;28;20064;-71
2021/06/04 07:09:20;;;;;;;26.08;18.45;;;20.90;99.90;;;;;;5029393;28;20041;-70
2021/06/04 07:11:50;;;;;;;25.33;19.33;;;20.90;99.90;;;;;;5036486;28;20049;-71
2021/06/04 07:14:21;;;;;;;26.27;16.90;;;20.90;99.90;;;;;;5038206;28;20041;-71
2021/06/04 07:16:48;;;;;;;20.92;15.75;;;21.00;99.90;;;;;;5036284;28;20465;-71
2021/06/04 07:19:15;;;;;;;25.35;18.52;;;21.10;99.90;;;;;;5028744;28;20459;-71
2021/06/04 07:21:44;;;;;;;22.10;17.75;;;21.20;99.90;;;;;;5034632;28;20044;-68
2021/06/04 07:24:14;;;;;;;20.02;14.77;;;21.20;99.90;;;;;;5032279;28;20045;-70
2021/06/04 07:26:47;;;;;;;23.23;15.07;;;21.30;99.90;;;;;;5043727;28;20096;-70
2021/06/04 07:29:15;;;;;;;16.38;12.98;;;21.30;99.90;;;;;;5036787;28;20451;-68
2021/06/04 07:31:42;;;;;;;19.27;13.02;;;21.30;99.90;;;;;;5034765;28;20053;-68
2021/06/04 07:34:12;;;;;;;18.20;12.67;;;21.30;99.90;;;;;;5037771;28;20952;-69
2021/06/04 07:36:46;;;;;;;18.10;13.50;;;21.30;99.90;;;;;;5037596;28;20126;-69
2021/06/04 07:39:17;;;;;;;17.40;13.25;;;21.40;99.90;;;;;;5036239;28;20150;-68
2021/06/04 07:41:44;;;;;;;18.63;13.50;;;21.40;99.90;;;;;;5036358;28;20543;-69
2021/06/04 07:44:13;;;;;;;19.20;12.70;;;21.60;99.90;;;;;;5036363;28;20495;-68
2021/06/04 07:46:41;;;;;;;18.85;14.20;;;21.60;99.90;;;;;;5040972;28;20118;-68
2021/06/04 07:49:09;;;;;;;16.65;12.77;;;21.70;99.90;;;;;;5029530;28;20465;-68
2021/06/04 07:51:42;;;;;;;19.25;13.95;;;21.70;99.90;;;;;;5045206;28;20049;-69
2021/06/04 07:54:11;;;;;;;16.45;12.23;;;21.80;99.90;;;;;;5039848;28;20123;-69
2021/06/04 07:56:40;;;;;;;17.98;12.85;;;21.90;99.90;;;;;;5044356;28;20061;-69
2021/06/04 07:59:07;;;;;;;21.25;14.00;;;21.90;99.90;;;;;;5042206;28;20141;-69
2021/06/04 08:01:34;;;;;;;19.60;14.67;;;21.90;99.90;;;;;;5037878;28;20072;-68
2021/06/04 08:04:01;;;;;;;18.50;13.43;;;22.00;99.90;;;;;;5042146;28;20401;-70
2021/06/04 08:06:29;;;;;;;18.48;13.70;;;22.00;99.90;;;;;;5040331;28;20433;-69
2021/06/04 08:08:56;;;;;;;21.00;12.75;;;22.00;99.90;;;;;;5037961;28;20053;-69
2021/06/04 08:11:33;;;;;;;16.33;11.38;;;22.00;99.90;;;;;;5053119;28;20088;-69
2021/06/04 08:14:05;;;;;;;14.15;10.02;;;22.00;99.90;;;;;;5033698;28;20045;-69
2021/06/04 08:16:35;;;;;;;14.85;10.80;;;22.10;99.90;;;;;;5045833;28;20453;-69
2021/06/04 08:19:02;;;;;;;15.63;10.18;;;22.20;99.90;;;;;;5040808;28;20053;-69
2021/06/04 08:21:33;;;;;;;15.70;11.98;;;22.20;99.90;;;;;;5039945;28;20048;-69
2021/06/04 08:24:00;;;;;;;14.55;11.73;;;22.30;99.90;;;;;;5055358;28;20056;-70
2021/06/04 08:26:32;;;;;;;15.48;11.55;;;22.40;99.90;;;;;;5051460;28;20350;-70
2021/06/04 08:29:01;;;;;;;13.77;10.30;;;22.40;99.90;;;;;;5050890;28;20475;-69
2021/06/04 08:31:31;;;;;;;13.55;10.07;;;22.40;99.90;;;;;;5046061;28;20132;-70
2021/06/04 08:33:58;;;;;;;16.70;10.40;;;22.40;99.90;;;;;;5044548;28;20045;-69
2021/06/04 08:36:28;;;;;;;12.97;9.70;;;22.40;99.90;;;;;;5039966;28;20061;-69
2021/06/04 08:38:57;;;;;;;13.02;9.93;;;22.50;99.90;;;;;;5040681;28;20400;-69
2021/06/04 08:42:00;;;;;;;13.45;10.30;;;22.60;99.90;;;;;;5043939;28;20049;-69
2021/06/04 08:44:57;;;;;;;12.25;9.52;;;22.80;99.90;;;;;;5049569;28;20045;-69
2021/06/04 08:47:31;;;;;;;15.68;10.52;;;22.90;99.90;;;;;;5040967;28;20492;-70
2021/06/04 08:50:31;;;;;;;15.93;11.38;;;23.00;99.90;;;;;;5034614;28;20132;-70
2021/06/04 08:53:24;;;;;;;14.80;10.52;;;23.00;99.90;;;;;;5038554;28;20095;-70
2021/06/04 08:55:59;;;;;;;14.52;11.02;;;23.00;99.90;;;;;;5035333;28;20084;-71
2021/06/04 08:58:29;;;;;;;16.83;12.93;;;23.10;99.90;;;;;;5046506;28;20052;-71
2021/06/04 09:00:59;;;;;;;16.33;13.18;;;23.10;99.90;;;;;;5036361;28;20087;-71
2021/06/04 09:03:38;;;;;;;18.55;13.07;;;23.10;99.90;;;;;;5043324;28;20492;-68
2021/06/04 09:06:10;;;;;;;16.40;12.95;;;23.10;99.90;;;;;;5034977;28;20041;-68
2021/06/04 09:08:39;;;;;;;18.40;12.82;;;23.10;99.90;;;;;;5027973;28;20088;-67
2021/06/04 09:11:19;;;;;;;18.77;12.57;;;23.20;99.90;;;;;;5034578;28;20072;-70
2021/06/04 09:13:46;;;;;;;15.15;12.27;;;23.20;99.90;;;;;;5041112;28;20535;-70
2021/06/04 09:16:40;;;;;;;15.52;10.77;;;23.30;99.90;;;;;;5042149;28;20083;-70
2021/06/04 09:19:16;;;;;;;13.88;10.95;;;23.40;99.90;;;;;;5039184;28;20180;-69
2021/06/04 09:21:44;;;;;;;14.65;10.65;;;23.50;99.90;;;;;;5054084;28;20048;-69
2021/06/04 09:24:26;;;;;;;18.13;13.77;;;23.60;99.90;;;;;;5054340;28;20154;-69
2021/06/04 09:26:53;;;;;;;16.35;13.02;;;23.60;99.90;;;;;;5050490;28;20075;-69
2021/06/04 09:29:31;;;;;;;14.30;12.05;;;23.60;99.90;;;;;;5032128;28;20050;-69
2021/06/04 09:32:22;;;;;;;17.60;13.32;;;23.60;99.90;;;;;;5042083;28;20113;-69
2021/06/04 09:34:49;;;;;;;16.63;12.43;;;23.60;99.90;;;;;;5043087;28;20053;-69
2021/06/04 09:37:37;;;;;;;17.02;12.32;;;23.60;99.90;;;;;;5056916;28;20081;-69
2021/06/04 09:40:29;;;;;;;15.52;13.77;;;23.70;99.90;;;;;;5054860;28;20100;-69
2021/06/04 09:43:14;;;;;;;18.20;13.75;;;23.70;99.90;;;;;;5052600;28;20044;-69
2021/06/04 09:45:53;;;;;;;13.98;10.52;;;23.80;99.90;;;;;;5049964;28;20127;-70
2021/06/04 09:48:35;;;;;;;11.05;7.28;;;23.80;99.90;;;;;;5069752;28;20473;-70
2021/06/04 09:51:30;;;;;;;11.23;6.30;;;24.00;99.90;;;;;;5054768;28;20052;-69
2021/06/04 09:54:19;;;;;;;8.63;6.95;;;24.00;99.90;;;;;;5031725;28;20084;-69
2021/06/04 09:56:46;;;;;;;8.23;6.78;;;24.10;99.90;;;;;;5045087;28;20049;-69
2021/06/04 09:59:14;;;;;;;11.77;8.20;;;24.10;99.90;;;;;;5062094;28;20072;-70
2021/06/04 10:01:48;;;;;;;12.77;9.95;;;24.20;99.90;;;;;;5051351;28;20052;-70
2021/06/04 10:04:32;;;;;;;14.88;11.20;;;24.20;99.90;;;;;;5050708;28;20749;-70
2021/06/04 10:07:13;;;;;;;16.50;10.43;;;24.20;99.90;;;;;;5042037;28;20595;-70
2021/06/04 10:09:43;;;;;;;16.60;9.50;;;24.20;99.90;;;;;;5041676;28;20041;-70
2021/06/04 10:12:31;;;;;;;15.75;10.18;;;24.20;99.90;;;;;;5049026;28;20049;-70
2021/06/04 10:15:13;;;;;;;13.38;10.88;;;24.20;99.90;;;;;;5061605;28;20102;-70
2021/06/04 10:18:06;;;;;;;14.90;12.52;;;24.20;99.90;;;;;;5051190;28;20045;-70
2021/06/04 10:20:37;;;;;;;15.93;10.55;;;24.10;99.90;;;;;;5049688;28;20036;-70
2021/06/04 10:23:09;;;;;;;13.65;11.40;;;24.10;99.90;;;;;;5057713;28;20412;-69
2021/06/04 10:25:41;;;;;;;15.18;11.45;;;24.10;99.90;;;;;;5046229;28;20080;-70
2021/06/04 10:28:31;;;;;;;15.02;10.55;;;24.10;99.90;;;;;;5051329;28;20076;-70
2021/06/04 10:31:06;;;;;;;12.20;10.35;;;24.20;99.90;;;;;;5045454;28;20099;-70
2021/06/04 10:33:58;;;;;;;14.25;10.43;;;24.20;99.90;;;;;;5034196;28;20206;-69
2021/06/04 10:36:28;;;;;;;13.27;10.35;;;24.30;99.90;;;;;;5048621;28;20053;-69
2021/06/04 10:39:07;;;;;;;10.68;8.98;;;24.30;99.90;;;;;;5052720;28;20453;-69
2021/06/04 10:41:45;;;;;;;11.77;8.40;;;24.30;99.90;;;;;;5047325;28;20069;-70
2021/06/04 10:44:48;;;;;;;13.05;9.07;;;24.40;99.90;;;;;;5059766;28;20093;-69
2021/06/04 10:47:48;;;;;;;13.00;9.05;;;24.50;99.90;;;;;;5038148;28;20403;-70
2021/06/04 10:50:40;;;;;;;11.55;9.13;;;24.50;99.90;;;;;;5061929;28;20049;-70
2021/06/04 10:53:31;;;;;;;10.50;8.60;;;24.50;99.90;;;;;;5045030;28;20060;-71
2021/06/04 10:56:15;;;;;;;9.43;6.88;;;24.50;99.90;;;;;;5038887;28;20049;-70
2021/06/04 10:59:16;;;;;;;10.85;7.88;;;24.50;99.90;;;;;;5057387;28;20168;-70
2021/06/04 11:01:47;;;;;;;8.85;6.40;;;24.50;99.90;;;;;;5051250;28;20045;-69
2021/06/04 11:04:22;;;;;;;9.02;6.43;;;24.50;99.90;;;;;;5065479;28;20041;-69
2021/06/04 11:06:49;;;;;;;7.25;5.45;;;24.60;99.90;;;;;;5049293;28;20858;-69
2021/06/04 11:09:41;;;;;;;9.48;6.63;;;24.60;99.90;;;;;;5054511;28;20076;-69
2021/06/04 11:12:36;;;;;;;7.70;6.20;;;24.70;99.90;;;;;;5043081;28;20109;-69
2021/06/04 11:15:10;;;;;;;7.28;5.72;;;24.70;99.90;;;;;;5057202;28;20052;-70
2021/06/04 11:18:05;;;;;;;8.10;5.82;;;24.80;99.90;;;;;;5054096;28;20136;-70
2021/06/04 11:20:53;;;;;;;11.55;6.15;;;24.80;99.90;;;;;;5056539;28;20076;-70
2021/06/04 11:23:29;;;;;;;8.43;6.00;;;24.80;99.90;;;;;;5040729;28;20052;-69
2021/06/04 11:26:00;;;;;;;9.43;6.40;;;24.90;99.90;;;;;;5055407;28;20393;-70
2021/06/04 11:28:48;;;;;;;10.05;6.20;;;25.00;99.90;;;;;;5034459;28;20083;-69
2021/06/04 11:31:30;;;;;;;8.88;6.18;;;25.10;99.90;;;;;;5072550;28;20726;-69
2021/06/04 11:34:02;;;;;;;10.00;7.05;;;25.20;99.90;;;;;;5039880;28;20061;-69
2021/06/04 11:36:32;;;;;;;8.98;7.93;;;25.20;99.90;;;;;;5051917;28;20041;-70
2021/06/04 11:39:06;;;;;;;11.35;7.50;;;25.20;99.90;;;;;;5059397;28;20098;-69
2021/06/04 11:41:44;;;;;;;9.93;7.43;;;25.40;99.90;;;;;;5039315;28;20041;-70
2021/06/04 11:44:19;;;;;;;9.93;7.30;;;25.50;99.90;;;;;;5042714;28;20044;-70
2021/06/04 11:47:22;;;;;;;10.27;7.43;;;25.60;99.90;;;;;;5041862;28;20556;-69
2021/06/04 11:49:54;;;;;;;9.80;7.53;;;25.70;99.90;;;;;;5023875;28;20088;-70
2021/06/04 11:52:26;;;;;;;10.57;7.72;;;25.80;99.90;;;;;;5025615;28;20182;-69
2021/06/04 11:55:25;;;;;;;10.35;7.95;;;25.90;99.90;;;;;;5041855;28;20057;-70
2021/06/04 11:57:59;;;;;;;10.65;7.88;;;25.90;99.90;;;;;;5042648;28;20151;-69
2021/06/04 12:00:29;;;;;;;9.73;8.45;;;25.90;99.90;;;;;;5045596;28;20041;-69
2021/06/04 12:03:08;;;;;;;9.63;7.35;;;25.90;99.90;;;;;;5034478;28;20128;-69
2021/06/04 12:05:53;;;;;;;11.32;7.40;;;25.90;99.90;;;;;;5042973;28;20077;-69
2021/06/04 12:08:29;;;;;;;11.25;6.82;;;26.00;99.90;;;;;;5044749;28;20132;-69
2021/06/04 12:10:57;;;;;;;10.43;6.50;;;26.10;99.90;;;;;;5020893;28;20053;-69
2021/06/04 12:13:54;;;;;;;8.88;6.13;;;26.10;99.90;;;;;;5038967;28;20045;-69
2021/06/04 12:16:21;;;;;;;9.40;6.75;;;26.20;99.90;;;;;;5035293;28;20045;-70
2021/06/04 12:18:51;;;;;;;8.50;6.28;;;26.20;99.90;;;;;;5044923;28;20443;-69
2021/06/04 12:21:43;;;;;;;10.25;6.53;;;26.20;99.90;;;;;;5040603;28;20049;-69
2021/06/04 12:24:22;;;;;;;8.30;6.47;;;26.20;99.90;;;;;;5043491;28;20053;-69
2021/06/04 12:27:19;;;;;;;8.30;6.38;;;26.30;99.90;;;;;;5042501;28;20045;-69
2021/06/04 12:29:47;;;;;;;8.98;6.00;;;26.30;99.90;;;;;;5040407;28;20068;-69
2021/06/04 12:32:48;;;;;;;8.20;5.90;;;26.30;99.90;;;;;;5042177;28;20448;-69
2021/06/04 12:35:46;;;;;;;8.65;5.47;;;26.30;99.90;;;;;;5041953;28;20048;-69
2021/06/04 12:38:25;;;;;;;8.13;5.72;;;26.30;99.90;;;;;;5009722;28;20049;-69
2021/06/04 12:40:54;;;;;;;9.52;5.88;;;26.30;99.90;;;;;;5043483;28;20045;-69
2021/06/04 12:43:30;;;;;;;9.27;6.57;;;26.20;99.90;;;;;;5042236;28;20061;-69
2021/06/04 12:46:16;;;;;;;7.38;5.93;;;26.20;99.90;;;;;;5042422;28;20069;-69
2021/06/04 12:48:43;;;;;;;10.07;5.88;;;26.10;99.90;;;;;;5028614;28;20052;-69
2021/06/04 12:51:20;;;;;;;9.57;6.22;;;26.10;99.90;;;;;;5043653;28;20088;-69
2021/06/04 12:53:49;;;;;;;8.57;5.70;;;26.10;99.90;;;;;;5047978;28;20077;-69
2021/06/04 12:56:26;;;;;;;7.38;6.20;;;26.00;99.90;;;;;;5043691;28;20053;-68
2021/06/04 12:58:58;;;;;;;8.52;5.50;;;26.00;99.90;;;;;;5048433;28;20085;-69
2021/06/04 13:01:29;;;;;;;7.45;5.85;;;25.90;99.90;;;;;;5061828;28;20477;-69
2021/06/04 13:04:14;;;;;;;8.48;5.57;;;25.90;99.90;;;;;;5047677;28;20136;-69
2021/06/04 13:06:45;;;;;;;8.32;5.28;;;26.00;99.90;;;;;;5016400;28;20144;-69
2021/06/04 13:09:41;;;;;;;8.07;5.63;;;26.10;99.90;;;;;;5045946;28;20044;-69
2021/06/04 13:12:27;;;;;;;6.82;5.15;;;26.20;99.90;;;;;;5018218;28;20286;-69